sensor_id;sensor_type;location;lat;lon;timestamp;pressure;altitude;pressure_sealevel;temperature;humidity
42761;BME280;31672;47.638;19.026;2022-08-19T00:04:43;99598.28;;;24.53;52.36
42761;BME280;31672;47.638;19.026;2022-08-19T00:09:49;99598.00;;;24.55;52.41
42761;BME280;31672;47.638;19.026;2022-08-19T00:14:52;99594.22;;;24.56;52.25
42761;BME280;31672;47.638;19.026;2022-08-19T00:19:56;99583.91;;;24.53;52.31
42761;BME280;31672;47.638;19.026;2022-08-19T00:24:59;99590.41;;;24.52;52.55
42761;BME280;31672;47.638;19.026;2022-08-19T00:30:06;99591.50;;;24.46;52.54
42761;BME280;31672;47.638;19.026;2022-08-19T00:35:10;99589.88;;;24.40;52.50
42761;BME280;31672;47.638;19.026;2022-08-19T00:40:13;99586.06;;;24.30;53.01
42761;BME280;31672;47.638;19.026;2022-08-19T00:45:24;99585.53;;;24.23;53.15
42761;BME280;31672;47.638;19.026;2022-08-19T00:50:27;99585.25;;;24.15;53.37
42761;BME280;31672;47.638;19.026;2022-08-19T00:55:33;99579.00;;;24.09;53.56
42761;BME280;31672;47.638;19.026;2022-08-19T01:00:36;99580.09;;;23.98;54.13
42761;BME280;31672;47.638;19.026;2022-08-19T01:05:42;99561.38;;;23.86;54.12
42761;BME280;31672;47.638;19.026;2022-08-19T01:10:53;99564.63;;;23.83;54.67
42761;BME280;31672;47.638;19.026;2022-08-19T01:16:05;99571.41;;;23.75;54.94
42761;BME280;31672;47.638;19.026;2022-08-19T01:21:46;99572.50;;;23.69;55.08
42761;BME280;31672;47.638;19.026;2022-08-19T01:26:51;99561.34;;;23.66;55.41
42761;BME280;31672;47.638;19.026;2022-08-19T01:31:54;99561.06;;;23.57;55.36
42761;BME280;31672;47.638;19.026;2022-08-19T01:36:57;99566.16;;;23.48;55.82
42761;BME280;31672;47.638;19.026;2022-08-19T01:42:00;99562.09;;;23.41;56.25
42761;BME280;31672;47.638;19.026;2022-08-19T01:47:06;99560.97;;;23.32;56.64
42761;BME280;31672;47.638;19.026;2022-08-19T01:52:09;99562.59;;;23.22;57.04
42761;BME280;31672;47.638;19.026;2022-08-19T01:57:14;99546.84;;;23.09;57.60
42761;BME280;31672;47.638;19.026;2022-08-19T02:02:17;99534.34;;;23.03;57.67
42761;BME280;31672;47.638;19.026;2022-08-19T02:07:20;99548.13;;;22.96;57.81
42761;BME280;31672;47.638;19.026;2022-08-19T02:12:24;99532.41;;;22.93;58.14
42761;BME280;31672;47.638;19.026;2022-08-19T02:17:27;99528.03;;;22.87;58.16
42761;BME280;31672;47.638;19.026;2022-08-19T02:22:31;99538.56;;;22.84;58.31
42761;BME280;31672;47.638;19.026;2022-08-19T02:27:34;99542.88;;;22.85;58.29
42761;BME280;31672;47.638;19.026;2022-08-19T02:32:37;99525.06;;;22.89;58.23
42761;BME280;31672;47.638;19.026;2022-08-19T02:37:47;99523.72;;;22.91;57.66
42761;BME280;31672;47.638;19.026;2022-08-19T02:43:09;99537.28;;;22.91;57.63
42761;BME280;31672;47.638;19.026;2022-08-19T02:48:12;99531.03;;;22.91;57.91
42761;BME280;31672;47.638;19.026;2022-08-19T02:53:27;99534.28;;;22.88;57.48
42761;BME280;31672;47.638;19.026;2022-08-19T02:58:30;99551.84;;;22.85;57.57
42761;BME280;31672;47.638;19.026;2022-08-19T03:03:33;99567.00;;;22.81;57.86
42761;BME280;31672;47.638;19.026;2022-08-19T03:08:37;99568.34;;;22.84;57.74
42761;BME280;31672;47.638;19.026;2022-08-19T03:13:41;99565.41;;;22.85;58.04
42761;BME280;31672;47.638;19.026;2022-08-19T03:18:46;99577.84;;;22.81;57.95
42761;BME280;31672;47.638;19.026;2022-08-19T03:24:00;99575.63;;;22.78;58.17
42761;BME280;31672;47.638;19.026;2022-08-19T03:29:05;99581.03;;;22.73;57.91
42761;BME280;31672;47.638;19.026;2022-08-19T03:34:13;99582.91;;;22.67;58.46
42761;BME280;31672;47.638;19.026;2022-08-19T03:39:16;99587.72;;;22.60;58.35
42761;BME280;31672;47.638;19.026;2022-08-19T03:44:21;99588.25;;;22.57;58.67
42761;BME280;31672;47.638;19.026;2022-08-19T03:49:28;99579.59;;;22.55;58.72
42761;BME280;31672;47.638;19.026;2022-08-19T03:54:32;99586.06;;;22.54;58.68
42761;BME280;31672;47.638;19.026;2022-08-19T03:59:37;99591.47;;;22.54;58.77
42761;BME280;31672;47.638;19.026;2022-08-19T04:04:43;99599.59;;;22.54;58.86
42761;BME280;31672;47.638;19.026;2022-08-19T04:09:46;99597.16;;;22.53;59.08
42761;BME280;31672;47.638;19.026;2022-08-19T04:14:49;99608.84;;;22.58;58.92
42761;BME280;31672;47.638;19.026;2022-08-19T04:19:52;99609.94;;;22.62;59.28
42761;BME280;31672;47.638;19.026;2022-08-19T04:24:57;99616.47;;;22.66;59.30
42761;BME280;31672;47.638;19.026;2022-08-19T04:30:00;99614.88;;;22.70;59.42
42761;BME280;31672;47.638;19.026;2022-08-19T04:35:04;99606.50;;;22.77;59.22
42761;BME280;31672;47.638;19.026;2022-08-19T04:40:20;99621.19;;;22.86;59.47
42761;BME280;31672;47.638;19.026;2022-08-19T04:45:44;99628.56;;;22.96;59.23
42761;BME280;31672;47.638;19.026;2022-08-19T04:50:47;99613.19;;;23.07;59.36
42761;BME280;31672;47.638;19.026;2022-08-19T04:55:51;99614.88;;;23.18;59.24
42761;BME280;31672;47.638;19.026;2022-08-19T05:00:54;99611.94;;;23.30;59.67
42761;BME280;31672;47.638;19.026;2022-08-19T05:05:57;99615.75;;;23.39;59.58
42761;BME280;31672;47.638;19.026;2022-08-19T05:11:01;99617.69;;;23.48;60.14
42761;BME280;31672;47.638;19.026;2022-08-19T05:16:04;99606.59;;;23.60;59.88
42761;BME280;31672;47.638;19.026;2022-08-19T05:21:15;99613.72;;;23.71;59.51
42761;BME280;31672;47.638;19.026;2022-08-19T05:26:42;99610.19;;;23.86;59.51
42761;BME280;31672;47.638;19.026;2022-08-19T05:31:47;99613.75;;;24.02;59.35
42761;BME280;31672;47.638;19.026;2022-08-19T05:36:57;99616.22;;;24.19;58.86
42761;BME280;31672;47.638;19.026;2022-08-19T05:42:05;99610.78;;;24.34;57.83
42761;BME280;31672;47.638;19.026;2022-08-19T05:47:12;99619.47;;;24.51;57.40
42761;BME280;31672;47.638;19.026;2022-08-19T05:52:18;99622.44;;;24.65;56.75
42761;BME280;31672;47.638;19.026;2022-08-19T05:57:28;99631.38;;;24.81;55.50
42761;BME280;31672;47.638;19.026;2022-08-19T06:02:31;99628.88;;;24.95;54.44
42761;BME280;31672;47.638;19.026;2022-08-19T06:07:39;99621.50;;;25.16;54.23
42761;BME280;31672;47.638;19.026;2022-08-19T06:12:42;99612.44;;;25.35;54.00
42761;BME280;31672;47.638;19.026;2022-08-19T06:17:45;99630.63;;;25.50;53.56
42761;BME280;31672;47.638;19.026;2022-08-19T06:22:49;99627.25;;;25.63;52.24
42761;BME280;31672;47.638;19.026;2022-08-19T06:27:54;99635.63;;;25.82;52.34
42761;BME280;31672;47.638;19.026;2022-08-19T06:33:16;99616.47;;;25.98;51.44
42761;BME280;31672;47.638;19.026;2022-08-19T06:38:20;99603.28;;;26.15;51.54
42761;BME280;31672;47.638;19.026;2022-08-19T06:43:25;99609.63;;;26.34;50.89
42761;BME280;31672;47.638;19.026;2022-08-19T06:48:30;99604.34;;;26.48;49.66
42761;BME280;31672;47.638;19.026;2022-08-19T06:53:39;99597.66;;;26.64;49.41
42761;BME280;31672;47.638;19.026;2022-08-19T06:58:42;99604.84;;;26.79;48.87
42761;BME280;31672;47.638;19.026;2022-08-19T07:03:45;99610.66;;;26.97;48.35
42761;BME280;31672;47.638;19.026;2022-08-19T07:08:50;99611.25;;;27.17;48.30
42761;BME280;31672;47.638;19.026;2022-08-19T07:13:58;99611.66;;;27.30;47.12
42761;BME280;31672;47.638;19.026;2022-08-19T07:19:01;99619.13;;;27.43;47.31
42761;BME280;31672;47.638;19.026;2022-08-19T07:24:17;99618.81;;;27.63;46.58
42761;BME280;31672;47.638;19.026;2022-08-19T07:29:22;99619.59;;;27.88;45.56
42761;BME280;31672;47.638;19.026;2022-08-19T07:34:31;99604.91;;;28.03;45.95
42761;BME280;31672;47.638;19.026;2022-08-19T07:39:41;99605.75;;;28.17;45.03
42761;BME280;31672;47.638;19.026;2022-08-19T07:44:44;99604.03;;;28.40;45.26
42761;BME280;31672;47.638;19.026;2022-08-19T07:49:52;99609.41;;;28.59;44.06
42761;BME280;31672;47.638;19.026;2022-08-19T07:54:55;99604.66;;;28.78;43.97
42761;BME280;31672;47.638;19.026;2022-08-19T07:59:58;99602.28;;;29.04;43.28
42761;BME280;31672;47.638;19.026;2022-08-19T08:05:01;99588.41;;;29.28;42.80
42761;BME280;31672;47.638;19.026;2022-08-19T08:10:22;99588.06;;;29.57;42.52
42761;BME280;31672;47.638;19.026;2022-08-19T08:15:26;99601.63;;;29.84;42.14
42761;BME280;31672;47.638;19.026;2022-08-19T08:20:30;99593.13;;;30.08;40.83
42761;BME280;31672;47.638;19.026;2022-08-19T08:25:35;99594.25;;;30.30;40.05
42761;BME280;31672;47.638;19.026;2022-08-19T08:30:39;99592.25;;;30.44;39.01
42761;BME280;31672;47.638;19.026;2022-08-19T08:35:47;99590.59;;;30.65;39.35
42761;BME280;31672;47.638;19.026;2022-08-19T08:40:56;99586.97;;;30.87;38.34
42761;BME280;31672;47.638;19.026;2022-08-19T08:46:37;99583.47;;;31.04;37.59
42761;BME280;31672;47.638;19.026;2022-08-19T08:52:03;99571.56;;;31.17;36.75
42761;BME280;31672;47.638;19.026;2022-08-19T08:57:24;99558.03;;;31.30;36.63
42761;BME280;31672;47.638;19.026;2022-08-19T09:02:32;99558.72;;;31.44;36.49
42761;BME280;31672;47.638;19.026;2022-08-19T09:13:14;99550.47;;;31.96;35.48
42761;BME280;31672;47.638;19.026;2022-08-19T09:18:20;99557.03;;;32.30;35.04
42761;BME280;31672;47.638;19.026;2022-08-19T09:23:23;99552.13;;;32.53;34.51
42761;BME280;31672;47.638;19.026;2022-08-19T09:28:31;99538.03;;;32.54;33.25
42761;BME280;31672;47.638;19.026;2022-08-19T09:33:34;99536.53;;;32.65;32.57
42761;BME280;31672;47.638;19.026;2022-08-19T09:38:39;99530.38;;;32.68;32.49
42761;BME280;31672;47.638;19.026;2022-08-19T09:43:49;99528.16;;;32.91;32.50
42761;BME280;31672;47.638;19.026;2022-08-19T09:48:57;99521.94;;;33.03;31.37
42761;BME280;31672;47.638;19.026;2022-08-19T09:54:08;99520.16;;;33.07;31.58
42761;BME280;31672;47.638;19.026;2022-08-19T09:59:13;99505.34;;;33.41;31.29
42761;BME280;31672;47.638;19.026;2022-08-19T10:04:15;99495.41;;;33.49;30.75
42761;BME280;31672;47.638;19.026;2022-08-19T10:09:23;99494.31;;;33.62;30.45
42761;BME280;31672;47.638;19.026;2022-08-19T10:14:36;99497.94;;;33.87;30.00
42761;BME280;31672;47.638;19.026;2022-08-19T10:19:40;99503.25;;;33.92;28.96
42761;BME280;31672;47.638;19.026;2022-08-19T10:24:56;99492.66;;;34.27;29.20
42761;BME280;31672;47.638;19.026;2022-08-19T10:29:59;99478.44;;;34.74;29.31
42761;BME280;31672;47.638;19.026;2022-08-19T10:35:05;99474.72;;;35.07;28.44
42761;BME280;31672;47.638;19.026;2022-08-19T10:40:11;99483.69;;;35.16;27.76
42761;BME280;31672;47.638;19.026;2022-08-19T10:45:14;99478.16;;;35.16;27.83
42761;BME280;31672;47.638;19.026;2022-08-19T10:50:17;99475.19;;;35.09;27.50
42761;BME280;31672;47.638;19.026;2022-08-19T10:55:39;99480.91;;;35.16;27.95
42761;BME280;31672;47.638;19.026;2022-08-19T11:01:00;99478.47;;;35.27;27.67
42761;BME280;31672;47.638;19.026;2022-08-19T11:06:07;99487.94;;;35.54;27.43
42761;BME280;31672;47.638;19.026;2022-08-19T11:11:11;99478.19;;;35.72;26.65
42761;BME280;31672;47.638;19.026;2022-08-19T11:16:23;99474.69;;;35.59;26.58
42761;BME280;31672;47.638;19.026;2022-08-19T11:21:32;99476.75;;;35.78;27.15
42761;BME280;31672;47.638;19.026;2022-08-19T11:26:37;99466.84;;;36.05;26.68
42761;BME280;31672;47.638;19.026;2022-08-19T11:31:46;99464.78;;;36.34;25.89
42761;BME280;31672;47.638;19.026;2022-08-19T11:36:51;99460.81;;;36.47;25.30
42761;BME280;31672;47.638;19.026;2022-08-19T11:41:55;99460.34;;;36.45;25.79
42761;BME280;31672;47.638;19.026;2022-08-19T11:46:59;99467.81;;;36.60;25.74
42761;BME280;31672;47.638;19.026;2022-08-19T11:52:11;99464.72;;;36.81;25.57
42761;BME280;31672;47.638;19.026;2022-08-19T11:57:14;99455.69;;;37.00;25.17
42761;BME280;31672;47.638;19.026;2022-08-19T12:02:19;99447.41;;;37.19;24.55
42761;BME280;31672;47.638;19.026;2022-08-19T12:07:22;99447.63;;;37.49;24.62
42761;BME280;31672;47.638;19.026;2022-08-19T12:12:25;99434.91;;;37.48;24.20
42761;BME280;31672;47.638;19.026;2022-08-19T12:17:29;99433.19;;;37.40;23.86
42761;BME280;31672;47.638;19.026;2022-08-19T12:22:33;99437.56;;;37.41;24.05
42761;BME280;31672;47.638;19.026;2022-08-19T12:27:38;99441.63;;;37.28;24.24
42761;BME280;31672;47.638;19.026;2022-08-19T12:32:44;99443.81;;;37.00;23.75
42761;BME280;31672;47.638;19.026;2022-08-19T12:37:48;99446.25;;;36.85;24.48
42761;BME280;31672;47.638;19.026;2022-08-19T12:42:59;99436.47;;;36.72;24.74
42761;BME280;31672;47.638;19.026;2022-08-19T12:48:02;99424.75;;;36.79;24.39
42761;BME280;31672;47.638;19.026;2022-08-19T12:53:25;99412.81;;;36.94;24.46
42761;BME280;31672;47.638;19.026;2022-08-19T12:58:29;99409.91;;;37.06;24.07
42761;BME280;31672;47.638;19.026;2022-08-19T13:03:32;99405.69;;;37.12;24.59
42761;BME280;31672;47.638;19.026;2022-08-19T13:08:40;99395.66;;;37.43;23.83
42761;BME280;31672;47.638;19.026;2022-08-19T13:13:47;99397.28;;;37.67;23.34
42761;BME280;31672;47.638;19.026;2022-08-19T13:18:50;99399.56;;;37.84;23.25
42761;BME280;31672;47.638;19.026;2022-08-19T13:23:54;99398.44;;;38.12;23.09
42761;BME280;31672;47.638;19.026;2022-08-19T13:28:57;99390.03;;;38.31;22.44
42761;BME280;31672;47.638;19.026;2022-08-19T13:34:32;99381.16;;;38.45;21.99
42761;BME280;31672;47.638;19.026;2022-08-19T13:39:36;99390.91;;;38.35;21.85
42761;BME280;31672;47.638;19.026;2022-08-19T13:44:39;99393.47;;;38.24;22.20
42761;BME280;31672;47.638;19.026;2022-08-19T13:49:42;99389.75;;;37.90;22.18
42761;BME280;31672;47.638;19.026;2022-08-19T13:54:46;99399.56;;;37.42;22.50
42761;BME280;31672;47.638;19.026;2022-08-19T13:59:50;99443.50;;;37.05;23.01
42761;BME280;31672;47.638;19.026;2022-08-19T14:04:54;99414.84;;;36.11;26.85
42761;BME280;31672;47.638;19.026;2022-08-19T14:09:56;99428.50;;;34.92;28.98
42761;BME280;31672;47.638;19.026;2022-08-19T14:15:00;99431.84;;;34.12;31.09
42761;BME280;31672;47.638;19.026;2022-08-19T14:20:07;99414.88;;;33.64;31.86
42761;BME280;31672;47.638;19.026;2022-08-19T14:25:17;99433.03;;;33.11;32.84
42761;BME280;31672;47.638;19.026;2022-08-19T14:30:31;99439.88;;;32.75;33.07
42761;BME280;31672;47.638;19.026;2022-08-19T14:35:35;99431.56;;;32.63;33.72
42761;BME280;31672;47.638;19.026;2022-08-19T14:40:38;99435.03;;;32.72;32.97
42761;BME280;31672;47.638;19.026;2022-08-19T14:45:43;99429.53;;;32.72;32.83
42761;BME280;31672;47.638;19.026;2022-08-19T14:50:46;99431.94;;;32.53;32.65
42761;BME280;31672;47.638;19.026;2022-08-19T14:55:49;99429.44;;;32.31;33.70
42761;BME280;31672;47.638;19.026;2022-08-19T15:00:52;99417.72;;;32.13;34.34
42761;BME280;31672;47.638;19.026;2022-08-19T15:05:56;99441.38;;;31.96;34.70
42761;BME280;31672;47.638;19.026;2022-08-19T15:11:00;99449.19;;;31.68;34.56
42761;BME280;31672;47.638;19.026;2022-08-19T15:16:04;99462.13;;;31.42;34.28
42761;BME280;31672;47.638;19.026;2022-08-19T15:21:16;99480.50;;;31.15;33.41
42761;BME280;31672;47.638;19.026;2022-08-19T15:26:29;99487.25;;;31.01;33.27
42761;BME280;31672;47.638;19.026;2022-08-19T15:31:34;99496.94;;;30.89;33.01
42761;BME280;31672;47.638;19.026;2022-08-19T15:36:40;99514.50;;;30.80;32.84
42761;BME280;31672;47.638;19.026;2022-08-19T15:41:45;99521.69;;;30.67;32.22
42761;BME280;31672;47.638;19.026;2022-08-19T15:46:48;99522.31;;;30.55;32.26
42761;BME280;31672;47.638;19.026;2022-08-19T15:51:52;99492.44;;;30.45;32.01
42761;BME280;31672;47.638;19.026;2022-08-19T15:56:56;99441.13;;;30.37;31.78
42761;BME280;31672;47.638;19.026;2022-08-19T16:02:19;99422.75;;;30.29;32.40
42761;BME280;31672;47.638;19.026;2022-08-19T16:07:41;99422.38;;;30.22;32.37
42761;BME280;31672;47.638;19.026;2022-08-19T16:12:44;99424.44;;;30.16;32.34
42761;BME280;31672;47.638;19.026;2022-08-19T16:17:48;99417.19;;;30.11;32.21
42761;BME280;31672;47.638;19.026;2022-08-19T16:22:58;99398.13;;;30.06;32.35
42761;BME280;31672;47.638;19.026;2022-08-19T16:28:02;99407.75;;;30.04;32.23
42761;BME280;31672;47.638;19.026;2022-08-19T16:33:10;99426.13;;;30.03;32.22
42761;BME280;31672;47.638;19.026;2022-08-19T16:38:13;99436.59;;;30.01;32.28
42761;BME280;31672;47.638;19.026;2022-08-19T16:43:16;99468.47;;;29.97;32.40
42761;BME280;31672;47.638;19.026;2022-08-19T16:48:23;99491.31;;;29.93;32.72
42761;BME280;31672;47.638;19.026;2022-08-19T16:53:28;99524.03;;;29.89;32.79
42761;BME280;31672;47.638;19.026;2022-08-19T16:58:34;99545.56;;;29.82;33.22
42761;BME280;31672;47.638;19.026;2022-08-19T17:03:37;99548.88;;;29.70;33.66
42761;BME280;31672;47.638;19.026;2022-08-19T17:08:41;99597.56;;;29.59;34.45
42761;BME280;31672;47.638;19.026;2022-08-19T17:13:50;99616.03;;;29.40;35.05
42761;BME280;31672;47.638;19.026;2022-08-19T17:18:56;99601.47;;;29.17;36.29
42761;BME280;31672;47.638;19.026;2022-08-19T17:24:03;99596.22;;;28.93;37.08
42761;BME280;31672;47.638;19.026;2022-08-19T17:29:08;99556.19;;;28.70;38.01
42761;BME280;31672;47.638;19.026;2022-08-19T17:34:11;99516.91;;;28.52;38.62
42761;BME280;31672;47.638;19.026;2022-08-19T17:39:14;99483.78;;;28.40;38.41
42761;BME280;31672;47.638;19.026;2022-08-19T17:44:17;99462.66;;;28.32;39.11
42761;BME280;31672;47.638;19.026;2022-08-19T17:49:21;99443.38;;;28.23;38.42
42761;BME280;31672;47.638;19.026;2022-08-19T17:54:24;99427.88;;;28.18;38.21
42761;BME280;31672;47.638;19.026;2022-08-19T17:59:35;99421.03;;;28.21;38.20
42761;BME280;31672;47.638;19.026;2022-08-19T18:04:39;99426.19;;;28.22;38.09
42761;BME280;31672;47.638;19.026;2022-08-19T18:09:44;99425.06;;;28.23;37.97
42761;BME280;31672;47.638;19.026;2022-08-19T18:14:54;99425.38;;;28.22;38.02
42761;BME280;31672;47.638;19.026;2022-08-19T18:19:57;99441.97;;;28.25;38.31
42761;BME280;31672;47.638;19.026;2022-08-19T18:25:21;99479.09;;;28.26;38.58
42761;BME280;31672;47.638;19.026;2022-08-19T18:30:28;99566.31;;;28.23;38.19
42761;BME280;31672;47.638;19.026;2022-08-19T18:35:35;99559.78;;;28.05;38.78
42761;BME280;31672;47.638;19.026;2022-08-19T18:40:40;99574.13;;;27.97;38.73
42761;BME280;31672;47.638;19.026;2022-08-19T18:46:02;99648.72;;;27.92;38.69
42761;BME280;31672;47.638;19.026;2022-08-19T18:51:25;99698.50;;;27.89;38.71
42761;BME280;31672;47.638;19.026;2022-08-19T18:56:31;99690.88;;;27.86;39.40
42761;BME280;31672;47.638;19.026;2022-08-19T19:01:36;99710.34;;;27.80;39.84
42761;BME280;31672;47.638;19.026;2022-08-19T19:06:41;99713.03;;;27.61;43.02
42761;BME280;31672;47.638;19.026;2022-08-19T19:11:49;99683.78;;;27.18;44.97
42761;BME280;31672;47.638;19.026;2022-08-19T19:16:52;99645.97;;;26.83;46.38
42761;BME280;31672;47.638;19.026;2022-08-19T19:21:57;99653.63;;;26.52;43.77
42761;BME280;31672;47.638;19.026;2022-08-19T19:27:02;99642.88;;;26.31;45.45
42761;BME280;31672;47.638;19.026;2022-08-19T19:32:26;99621.81;;;26.08;45.69
42761;BME280;31672;47.638;19.026;2022-08-19T19:37:31;99610.56;;;25.85;48.17
42761;BME280;31672;47.638;19.026;2022-08-19T19:42:34;99567.22;;;25.50;50.11
42761;BME280;31672;47.638;19.026;2022-08-19T19:47:38;99600.28;;;25.18;50.90
42761;BME280;31672;47.638;19.026;2022-08-19T19:52:43;99631.59;;;24.95;51.81
42761;BME280;31672;47.638;19.026;2022-08-19T19:57:49;99600.44;;;24.72;55.52
42761;BME280;31672;47.638;19.026;2022-08-19T20:02:54;99617.84;;;24.45;57.33
42761;BME280;31672;47.638;19.026;2022-08-19T20:07:57;99609.41;;;24.06;59.41
42761;BME280;31672;47.638;19.026;2022-08-19T20:13:20;99588.72;;;23.59;61.39
42761;BME280;31672;47.638;19.026;2022-08-19T20:18:23;99584.84;;;23.30;63.62
42761;BME280;31672;47.638;19.026;2022-08-19T20:23:26;99709.34;;;22.99;65.69
42761;BME280;31672;47.638;19.026;2022-08-19T20:28:29;99790.25;;;22.58;68.55
42761;BME280;31672;47.638;19.026;2022-08-19T20:33:33;99809.84;;;22.38;70.64
42761;BME280;31672;47.638;19.026;2022-08-19T20:38:40;99814.63;;;22.31;72.00
42761;BME280;31672;47.638;19.026;2022-08-19T20:43:43;99817.34;;;22.31;73.54
42761;BME280;31672;47.638;19.026;2022-08-19T20:48:46;99842.41;;;22.22;75.42
42761;BME280;31672;47.638;19.026;2022-08-19T20:53:49;99877.44;;;22.11;76.68
42761;BME280;31672;47.638;19.026;2022-08-19T20:58:52;99877.31;;;22.01;77.84
42761;BME280;31672;47.638;19.026;2022-08-19T21:04:01;99898.47;;;21.87;79.30
42761;BME280;31672;47.638;19.026;2022-08-19T21:09:05;99879.81;;;21.69;80.53
42761;BME280;31672;47.638;19.026;2022-08-19T21:14:07;99866.75;;;21.44;81.82
42761;BME280;31672;47.638;19.026;2022-08-19T21:19:10;99853.94;;;21.23;83.20
42761;BME280;31672;47.638;19.026;2022-08-19T21:24:14;99851.81;;;21.08;84.28
42761;BME280;31672;47.638;19.026;2022-08-19T21:29:17;99839.28;;;21.02;85.02
42761;BME280;31672;47.638;19.026;2022-08-19T21:34:20;99810.56;;;20.96;86.04
42761;BME280;31672;47.638;19.026;2022-08-19T21:39:22;99762.03;;;20.84;86.82
42761;BME280;31672;47.638;19.026;2022-08-19T21:44:26;99760.31;;;20.78;88.28
42761;BME280;31672;47.638;19.026;2022-08-19T21:49:29;99733.22;;;20.73;89.58
42761;BME280;31672;47.638;19.026;2022-08-19T21:54:35;99734.75;;;20.69;90.20
42761;BME280;31672;47.638;19.026;2022-08-19T21:59:40;99702.88;;;20.66;90.79
42761;BME280;31672;47.638;19.026;2022-08-19T22:04:47;99692.56;;;20.63;91.28
42761;BME280;31672;47.638;19.026;2022-08-19T22:09:50;99670.13;;;20.62;91.96
42761;BME280;31672;47.638;19.026;2022-08-19T22:14:54;99655.00;;;20.61;92.08
42761;BME280;31672;47.638;19.026;2022-08-19T22:19:57;99657.25;;;20.64;92.43
42761;BME280;31672;47.638;19.026;2022-08-19T22:25:13;99649.22;;;20.69;92.87
42761;BME280;31672;47.638;19.026;2022-08-19T22:30:35;99632.25;;;20.74;93.26
42761;BME280;31672;47.638;19.026;2022-08-19T22:35:42;99610.72;;;20.79;93.77
42761;BME280;31672;47.638;19.026;2022-08-19T22:40:48;99602.78;;;20.89;94.52
42761;BME280;31672;47.638;19.026;2022-08-19T22:45:54;99605.03;;;20.97;94.80
42761;BME280;31672;47.638;19.026;2022-08-19T22:50:59;99572.38;;;20.99;95.04
42761;BME280;31672;47.638;19.026;2022-08-19T22:56:21;99568.28;;;20.96;94.88
42761;BME280;31672;47.638;19.026;2022-08-19T23:01:23;99565.34;;;20.98;95.13
42761;BME280;31672;47.638;19.026;2022-08-19T23:06:32;99566.66;;;20.95;94.89
42761;BME280;31672;47.638;19.026;2022-08-19T23:11:39;99554.72;;;20.91;95.33
42761;BME280;31672;47.638;19.026;2022-08-19T23:16:44;99552.84;;;20.92;95.81
42761;BME280;31672;47.638;19.026;2022-08-19T23:21:52;99546.88;;;20.90;95.88
42761;BME280;31672;47.638;19.026;2022-08-19T23:26:55;99560.56;;;20.83;95.61
42761;BME280;31672;47.638;19.026;2022-08-19T23:32:18;99556.66;;;20.74;95.59
42761;BME280;31672;47.638;19.026;2022-08-19T23:37:22;99552.50;;;20.66;95.79
42761;BME280;31672;47.638;19.026;2022-08-19T23:42:26;99542.78;;;20.65;96.07
42761;BME280;31672;47.638;19.026;2022-08-19T23:47:30;99535.97;;;20.63;96.32
42761;BME280;31672;47.638;19.026;2022-08-19T23:57:46;99541.81;;;20.54;96.09
